createdAt,value
2019-03-05T00:26:08.408Z,10.57
2019-03-05T00:28:58.794Z,6.57
2019-03-05T00:35:30.508Z,4.30
2019-03-05T00:38:03.122Z,3.70
2019-03-05T00:40:37.950Z,3.93
2019-03-05T00:43:11.618Z,2.97
2019-03-05T00:45:45.942Z,3.93
2019-03-05T00:48:20.366Z,3.17
2019-03-05T00:50:53.826Z,3.97
2019-03-05T00:53:38.251Z,2.70
2019-03-05T00:56:10.227Z,2.83
2019-03-05T00:58:48.394Z,3.40
2019-03-05T01:01:23.634Z,2.60
2019-03-05T01:04:06.382Z,3.60
2019-03-05T01:06:36.012Z,4.53
2019-03-05T01:09:10.514Z,3.10
2019-03-05T01:11:40.242Z,3.43
2019-03-05T01:14:09.842Z,2.90
2019-03-05T01:16:39.892Z,3.60
2019-03-05T01:19:09.417Z,2.60
2019-03-05T01:21:39.073Z,3.83
2019-03-05T01:24:08.591Z,3.27
2019-03-05T01:26:38.149Z,3.00
2019-03-05T01:29:07.784Z,4.00
2019-03-05T01:31:57.648Z,2.87
2019-03-05T01:34:44.791Z,2.60
2019-03-05T01:37:14.331Z,2.70
2019-03-05T01:39:49.643Z,3.50
2019-03-05T01:42:19.222Z,3.20
2019-03-05T01:44:48.739Z,2.50
2019-03-05T01:47:18.543Z,2.33
2019-03-05T01:49:48.082Z,2.67
2019-03-05T01:52:17.734Z,2.80
2019-03-05T01:54:47.254Z,2.53
2019-03-05T01:57:16.875Z,3.03
2019-03-05T01:59:46.424Z,3.10
2019-03-05T02:02:16.034Z,3.03
2019-03-05T02:04:45.576Z,3.40
2019-03-05T02:07:15.607Z,3.33
2019-03-05T02:09:45.338Z,2.53
2019-03-05T02:12:14.961Z,2.80
2019-03-05T02:14:44.601Z,3.20
2019-03-05T02:17:14.186Z,2.53
2019-03-05T02:19:47.525Z,2.37
2019-03-05T02:22:31.230Z,4.03
2019-03-05T02:25:19.915Z,3.00
2019-03-05T02:28:00.907Z,2.57
2019-03-05T02:30:49.579Z,2.20
2019-03-05T02:33:36.623Z,3.07
2019-03-05T02:36:12.705Z,3.03
2019-03-05T02:38:52.068Z,3.40
2019-03-05T02:41:39.437Z,2.90
2019-03-05T02:44:26.883Z,3.10
2019-03-05T02:47:15.561Z,2.53
2019-03-05T02:50:13.125Z,2.80
2019-03-05T02:52:49.253Z,2.53
2019-03-05T02:55:40.998Z,2.90
2019-03-05T02:58:09.854Z,2.47
2019-03-05T03:00:51.722Z,2.70
2019-03-05T03:03:26.826Z,2.67
2019-03-05T03:06:18.378Z,2.80
2019-03-05T03:08:47.943Z,1.90
2019-03-05T03:11:17.468Z,2.30
2019-03-05T03:13:47.023Z,2.27
2019-03-05T03:16:16.618Z,2.13
2019-03-05T03:18:46.267Z,2.10
2019-03-05T03:21:16.663Z,1.90
2019-03-05T03:23:46.268Z,2.73
2019-03-05T03:26:15.822Z,2.20
2019-03-05T03:28:45.386Z,2.13
2019-03-05T03:31:15.042Z,2.37
2019-03-05T03:33:44.641Z,2.70
2019-03-05T03:36:14.300Z,2.33
2019-03-05T03:38:43.844Z,2.30
2019-03-05T03:41:13.406Z,2.97
2019-03-05T03:43:42.946Z,1.90
2019-03-05T03:46:12.597Z,2.60
2019-03-05T03:48:42.124Z,2.27
2019-03-05T03:51:11.751Z,1.73
2019-03-05T03:53:41.319Z,1.93
2019-03-05T03:56:10.955Z,1.80
2019-03-05T03:58:40.531Z,2.03
2019-03-05T04:01:10.093Z,2.10
2019-03-05T04:03:39.724Z,1.90
2019-03-05T04:06:09.270Z,2.33
2019-03-05T04:08:38.800Z,2.10
2019-03-05T04:11:08.419Z,2.23
2019-03-05T04:13:38.007Z,2.50
2019-03-05T04:16:07.589Z,2.03
2019-03-05T04:18:37.123Z,2.03
2019-03-05T04:21:06.668Z,2.27
2019-03-05T04:23:36.212Z,2.50
2019-03-05T04:26:05.787Z,2.00
2019-03-05T04:28:35.306Z,2.23
2019-03-05T04:31:04.946Z,2.40
2019-03-05T04:33:34.489Z,2.10
2019-03-05T04:36:04.145Z,2.30
2019-03-05T04:38:33.757Z,1.63
2019-03-05T04:41:03.309Z,1.80
2019-03-05T04:43:32.853Z,2.70
2019-03-05T04:46:27.562Z,2.53
2019-03-05T04:49:26.548Z,2.30
2019-03-05T04:52:04.880Z,2.50
2019-03-05T04:54:34.431Z,2.00
2019-03-05T04:57:04.016Z,2.30
2019-03-05T04:59:33.552Z,2.30
2019-03-05T05:02:03.228Z,2.40
2019-03-05T05:04:32.806Z,2.77
2019-03-05T05:07:02.390Z,2.50
2019-03-05T05:09:31.981Z,2.57
2019-03-05T05:12:01.565Z,1.93
2019-03-05T05:14:31.110Z,2.60
2019-03-05T05:17:00.732Z,3.00
2019-03-05T05:19:30.267Z,2.43
2019-03-05T05:21:59.859Z,1.87
2019-03-05T05:24:29.547Z,2.30
2019-03-05T05:26:59.105Z,1.73
2019-03-05T05:29:28.643Z,2.07
2019-03-05T05:31:58.504Z,2.20
2019-03-05T05:34:28.214Z,1.90
2019-03-05T05:36:57.759Z,2.30
2019-03-05T05:39:44.891Z,1.63
2019-03-05T05:42:14.470Z,2.03
2019-03-05T05:44:44.043Z,2.27
2019-03-05T05:47:13.751Z,1.90
2019-03-05T05:49:43.307Z,2.43
2019-03-05T05:52:13.028Z,2.40
2019-03-05T05:54:42.604Z,2.03
2019-03-05T05:57:12.230Z,2.00
2019-03-05T05:59:41.778Z,2.87
2019-03-05T06:02:11.332Z,2.23
2019-03-05T06:04:40.890Z,1.90
2019-03-05T06:07:10.488Z,2.27
2019-03-05T06:09:40.130Z,1.70
2019-03-05T06:12:09.679Z,1.90
2019-03-05T06:14:39.203Z,2.53
2019-03-05T06:17:08.769Z,2.60
2019-03-05T06:19:38.302Z,2.87
2019-03-05T06:22:07.908Z,3.40
2019-03-05T06:24:37.460Z,2.73
2019-03-05T06:27:07.071Z,2.40
2019-03-05T06:29:36.604Z,3.47
2019-03-05T06:32:06.230Z,3.53
2019-03-05T06:34:35.838Z,2.73
2019-03-05T06:37:05.410Z,2.80
2019-03-05T06:39:34.951Z,3.60
2019-03-05T06:42:04.496Z,3.63
2019-03-05T06:44:34.046Z,2.93
2019-03-05T06:47:03.598Z,2.30
2019-03-05T06:49:33.150Z,3.27
2019-03-05T06:52:02.749Z,2.30
2019-03-05T06:54:32.302Z,2.50
2019-03-05T06:57:01.854Z,2.43
2019-03-05T06:59:31.402Z,2.50
2019-03-05T07:02:01.011Z,2.30
2019-03-05T07:04:30.666Z,2.80
2019-03-05T07:07:00.250Z,2.47
2019-03-05T07:09:44.005Z,3.00
2019-03-05T07:12:18.239Z,1.77
2019-03-05T07:15:05.632Z,2.10
2019-03-05T07:17:46.008Z,1.83
2019-03-05T07:20:33.122Z,2.03
2019-03-05T07:23:11.164Z,2.37
2019-03-05T07:25:40.693Z,2.30
2019-03-05T07:28:10.340Z,2.03
2019-03-05T07:30:39.875Z,2.00
2019-03-05T07:33:09.519Z,2.00
2019-03-05T07:35:39.148Z,1.90
2019-03-05T07:38:08.792Z,2.63
2019-03-05T07:40:38.339Z,1.90
2019-03-05T07:43:07.965Z,2.43
2019-03-05T07:45:37.553Z,2.27
2019-03-05T07:48:07.190Z,1.83
2019-03-05T07:50:36.819Z,1.70
2019-03-05T07:53:06.384Z,2.17
2019-03-05T07:55:35.981Z,1.87
2019-03-05T07:58:05.681Z,1.57
2019-03-05T08:00:35.273Z,2.27
2019-03-05T08:03:04.928Z,2.60
2019-03-05T08:05:34.474Z,2.20
2019-03-05T08:08:26.706Z,2.33
2019-03-05T08:10:53.151Z,2.10
2019-03-05T08:13:31.445Z,1.77
2019-03-05T08:16:30.303Z,2.30
2019-03-05T08:18:59.943Z,1.60
2019-03-05T08:21:29.757Z,1.53
2019-03-05T08:23:59.315Z,2.47
2019-03-05T08:26:28.989Z,1.80
2019-03-05T08:28:58.542Z,1.77
2019-03-05T08:31:28.092Z,2.30
2019-03-05T08:33:57.693Z,1.90
2019-03-05T08:36:27.336Z,2.40
2019-03-05T08:38:56.891Z,1.47
2019-03-05T08:41:26.440Z,1.90
2019-03-05T08:43:56.026Z,2.03
2019-03-05T08:46:25.582Z,2.40
2019-03-05T08:48:55.206Z,2.30
2019-03-05T08:51:24.847Z,1.57
2019-03-05T08:53:54.444Z,2.23
2019-03-05T08:56:23.988Z,2.10
2019-03-05T08:58:53.647Z,2.13
2019-03-05T09:01:23.233Z,2.00
2019-03-05T09:03:52.816Z,2.17
2019-03-05T09:06:22.370Z,2.17
2019-03-05T09:08:51.952Z,1.80
2019-03-05T09:11:22.122Z,1.90
2019-03-05T09:13:51.696Z,1.90
2019-03-05T09:16:21.320Z,2.20
2019-03-05T09:18:50.901Z,2.37
2019-03-05T09:21:20.505Z,2.20
2019-03-05T09:23:50.091Z,2.40
2019-03-05T09:26:19.682Z,1.90
2019-03-05T09:28:49.319Z,2.00
2019-03-05T09:31:18.848Z,2.00
2019-03-05T09:33:48.448Z,2.37
2019-03-05T09:36:18.002Z,2.13
2019-03-05T09:38:47.699Z,1.87
2019-03-05T09:41:17.241Z,2.40
2019-03-05T09:43:46.810Z,2.50
2019-03-05T09:46:16.399Z,2.20
2019-03-05T09:48:45.975Z,2.70
2019-03-05T09:51:15.515Z,2.20
2019-03-05T09:53:45.158Z,2.43
2019-03-05T09:56:14.764Z,2.57
2019-03-05T09:58:44.427Z,2.67
2019-03-05T10:01:13.972Z,2.80
2019-03-05T10:03:43.636Z,2.30
2019-03-05T10:06:13.180Z,1.80
2019-03-05T10:08:42.812Z,2.30
2019-03-05T10:11:12.358Z,2.40
2019-03-05T10:13:41.932Z,2.23
2019-03-05T10:16:11.470Z,3.30
2019-03-05T10:18:41.024Z,2.63
2019-03-05T10:21:11.867Z,2.47
2019-03-05T10:23:41.664Z,2.50
2019-03-05T10:26:11.279Z,2.50
2019-03-05T10:28:41.347Z,2.63
2019-03-05T10:31:11.010Z,2.80
2019-03-05T10:33:40.727Z,2.23
2019-03-05T10:36:10.375Z,2.47
2019-03-05T10:38:39.923Z,2.43
2019-03-05T10:41:09.524Z,2.80
2019-03-05T10:43:39.131Z,2.73
2019-03-05T10:46:08.912Z,2.50
2019-03-05T10:48:38.512Z,2.20
2019-03-05T10:51:08.157Z,2.83
2019-03-05T10:53:37.712Z,3.00
2019-03-05T10:56:07.292Z,2.87
2019-03-05T10:58:36.848Z,2.83
2019-03-05T11:01:10.024Z,3.70
2019-03-05T11:03:39.573Z,2.23
2019-03-05T11:06:09.168Z,2.70
2019-03-05T11:08:38.795Z,2.43
2019-03-05T11:11:13.502Z,3.00
2019-03-05T11:13:39.750Z,2.70
2019-03-05T11:16:09.323Z,2.43
2019-03-05T11:18:38.938Z,2.97
2019-03-05T11:21:08.495Z,2.70
2019-03-05T11:23:38.123Z,2.77
2019-03-05T11:26:07.680Z,2.93
2019-03-05T11:28:37.236Z,3.13
2019-03-05T11:31:07.192Z,2.83
2019-03-05T11:33:36.735Z,2.77
2019-03-05T11:36:06.315Z,2.50
2019-03-05T11:38:35.886Z,2.40
2019-03-05T11:41:05.470Z,2.17
2019-03-05T11:43:35.018Z,2.10
2019-03-05T11:46:06.456Z,3.17
2019-03-05T11:48:36.084Z,1.90
2019-03-05T11:51:05.651Z,2.90
2019-03-05T11:53:35.323Z,6.03
2019-03-05T11:56:05.059Z,5.37
2019-03-05T11:58:34.599Z,5.77
2019-03-05T12:01:08.648Z,11.30
2019-03-05T12:03:38.229Z,6.13
2019-03-05T12:06:07.958Z,12.27
2019-03-05T12:08:37.628Z,7.17
2019-03-05T12:11:07.293Z,4.37
2019-03-05T12:13:36.909Z,3.30
2019-03-05T12:16:08.407Z,2.37
2019-03-05T12:18:37.955Z,2.73
2019-03-05T12:21:07.590Z,3.20
2019-03-05T12:23:37.224Z,2.90
2019-03-05T12:26:06.809Z,4.03
2019-03-05T12:28:36.367Z,3.13
2019-03-05T12:31:05.944Z,3.23
2019-03-05T12:33:35.551Z,2.80
2019-03-05T12:36:05.143Z,2.53
2019-03-05T12:38:34.705Z,3.20
2019-03-05T12:41:04.406Z,2.90
2019-03-05T12:43:34.053Z,3.10
2019-03-05T12:46:05.343Z,3.00
2019-03-05T12:48:39.912Z,3.07
2019-03-05T12:51:06.214Z,3.40
2019-03-05T12:53:35.821Z,2.60
2019-03-05T12:56:05.454Z,2.90
2019-03-05T12:58:35.107Z,2.47
2019-03-05T13:01:06.585Z,2.10
2019-03-05T13:03:36.145Z,2.30
2019-03-05T13:06:05.770Z,2.30
2019-03-05T13:08:35.329Z,2.10
2019-03-05T13:11:04.879Z,2.40
2019-03-05T13:13:34.515Z,2.57
2019-03-05T13:16:04.204Z,1.70
2019-03-05T13:18:33.766Z,1.87
2019-03-05T13:21:07.401Z,1.60
2019-03-05T13:23:34.732Z,1.80
2019-03-05T13:26:07.561Z,1.67
2019-03-05T13:28:40.533Z,2.70
2019-03-05T13:31:08.723Z,2.20
2019-03-05T13:33:41.835Z,2.67
2019-03-05T13:36:12.478Z,3.40
2019-03-05T13:38:41.784Z,3.00
2019-03-05T13:41:15.741Z,4.03
2019-03-05T13:43:43.663Z,7.33
2019-03-05T13:46:13.432Z,8.83
2019-03-05T13:49:00.941Z,9.77
2019-03-05T13:52:04.646Z,11.67
2019-03-05T13:54:49.749Z,7.90
2019-03-05T13:57:36.923Z,5.90
2019-03-05T14:00:07.404Z,3.83
2019-03-05T14:02:54.759Z,4.03
2019-03-05T14:05:43.520Z,4.90
2019-03-05T14:08:44.302Z,3.27
2019-03-05T14:11:14.069Z,2.50
2019-03-05T14:13:43.816Z,2.10
2019-03-05T14:16:15.204Z,2.10
2019-03-05T14:18:44.978Z,2.30
2019-03-05T14:21:14.707Z,2.10
2019-03-05T14:23:44.556Z,2.57
2019-03-05T14:26:14.316Z,2.47
2019-03-05T14:28:44.920Z,2.83
2019-03-05T14:31:14.729Z,1.80
2019-03-05T14:33:44.362Z,2.30
2019-03-05T14:36:14.019Z,2.40
2019-03-05T14:38:43.737Z,1.90
2019-03-05T14:41:13.323Z,1.80
2019-03-05T14:43:42.909Z,1.90
2019-03-05T14:46:12.561Z,1.80
2019-03-05T14:48:42.169Z,2.07
2019-03-05T14:51:11.770Z,2.20
2019-03-05T14:53:41.431Z,1.77
2019-03-05T14:56:11.120Z,2.03
2019-03-05T14:58:40.874Z,1.90
2019-03-05T15:01:10.597Z,1.97
2019-03-05T15:03:40.358Z,1.77
2019-03-05T15:06:10.036Z,1.43
2019-03-05T15:08:39.650Z,2.67
2019-03-05T15:11:09.472Z,2.40
2019-03-05T15:13:39.100Z,2.87
2019-03-05T15:16:08.803Z,2.27
2019-03-05T15:18:38.502Z,2.03
2019-03-05T15:21:08.166Z,2.00
2019-03-05T15:23:37.755Z,2.00
2019-03-05T15:26:07.462Z,2.83
2019-03-05T15:28:37.170Z,2.70
2019-03-05T15:31:06.859Z,3.13
2019-03-05T15:33:36.677Z,6.67
2019-03-05T15:36:06.544Z,4.10
2019-03-05T15:38:36.153Z,5.20
2019-03-05T15:41:05.916Z,6.23
2019-03-05T15:43:35.576Z,7.10
2019-03-05T15:46:05.199Z,7.47
2019-03-05T15:48:35.189Z,3.13
2019-03-05T15:51:04.833Z,3.67
2019-03-05T15:53:34.403Z,3.07
2019-03-05T15:56:04.145Z,3.37
2019-03-05T15:58:33.773Z,3.67
2019-03-05T16:01:03.685Z,3.30
2019-03-05T16:03:33.331Z,3.57
2019-03-05T16:06:02.950Z,4.20
2019-03-05T16:08:32.794Z,3.33
2019-03-05T16:11:02.444Z,5.73
2019-03-05T16:13:32.743Z,4.60
2019-03-05T16:16:02.415Z,4.77
2019-03-05T16:18:31.994Z,4.00
2019-03-05T16:21:02.545Z,4.80
2019-03-05T16:23:32.950Z,4.53
2019-03-05T16:26:02.560Z,3.53
2019-03-05T16:28:32.127Z,3.50
2019-03-05T16:31:21.613Z,3.17
2019-03-05T16:34:09.458Z,4.30
2019-03-05T16:36:56.980Z,3.90
2019-03-05T16:39:46.325Z,6.57
2019-03-05T16:42:24.859Z,5.13
2019-03-05T16:45:06.391Z,3.80
2019-03-05T16:47:46.681Z,3.33
2019-03-05T16:50:44.596Z,2.73
2019-03-05T16:53:30.161Z,3.87
2019-03-05T16:56:13.770Z,2.90
2019-03-05T16:59:00.514Z,3.43
2019-03-05T17:01:42.580Z,2.90
2019-03-05T17:04:31.298Z,2.80
2019-03-05T17:07:18.795Z,3.00
2019-03-05T17:10:13.648Z,3.03
2019-03-05T17:12:43.279Z,5.03
2019-03-05T17:15:12.920Z,5.13
2019-03-05T17:17:42.552Z,5.00
2019-03-05T17:20:12.228Z,7.90
2019-03-05T17:22:41.811Z,4.87
2019-03-05T17:25:12.272Z,19.07
2019-03-05T17:27:42.181Z,6.37
2019-03-05T17:30:13.124Z,4.30
2019-03-05T17:32:42.743Z,7.30
2019-03-05T17:35:12.377Z,4.50
2019-03-05T17:37:42.030Z,5.13
2019-03-05T17:40:11.913Z,3.50
2019-03-05T17:42:41.601Z,8.77
2019-03-05T17:45:12.970Z,2.87
2019-03-05T17:47:43.393Z,3.30
2019-03-05T17:50:13.500Z,3.10
2019-03-05T17:52:44.781Z,2.90
2019-03-05T17:55:23.816Z,6.10
2019-03-05T17:57:46.986Z,5.37
2019-03-05T18:00:24.263Z,3.23
2019-03-05T18:02:54.071Z,3.40
2019-03-05T18:05:23.742Z,3.47
2019-03-05T18:07:53.561Z,2.93
2019-03-05T18:10:23.565Z,3.13
2019-03-05T18:12:53.123Z,6.10
2019-03-05T18:15:22.725Z,4.20
2019-03-05T18:17:52.363Z,3.90
2019-03-05T18:20:22.241Z,3.60
2019-03-05T18:22:51.901Z,4.33
2019-03-05T18:25:21.541Z,4.73
2019-03-05T18:27:51.133Z,4.33
2019-03-05T18:30:20.824Z,4.30
2019-03-05T18:32:50.427Z,4.00
2019-03-05T18:35:20.139Z,3.77
2019-03-05T18:37:49.739Z,4.57
2019-03-05T18:40:19.396Z,3.60
2019-03-05T18:42:48.940Z,4.23
2019-03-05T18:45:19.220Z,4.07
2019-03-05T18:47:48.932Z,3.77
2019-03-05T18:50:18.826Z,4.03
2019-03-05T18:52:48.827Z,4.03
2019-03-05T18:55:18.887Z,5.03
2019-03-05T18:57:48.719Z,4.40
2019-03-05T19:00:19.660Z,3.80
2019-03-05T19:02:49.409Z,4.07
2019-03-05T19:05:19.048Z,4.77
2019-03-05T19:07:48.708Z,5.70
2019-03-05T19:10:18.804Z,6.83
2019-03-05T19:12:51.404Z,4.63
2019-03-05T19:15:21.204Z,4.70
2019-03-05T19:17:51.930Z,7.00
2019-03-05T19:20:22.148Z,4.33
2019-03-05T19:22:51.728Z,4.67
2019-03-05T19:25:22.650Z,4.00
2019-03-05T19:27:52.232Z,4.47
2019-03-05T19:30:23.290Z,4.70
2019-03-05T19:32:53.581Z,5.93
2019-03-05T19:35:23.218Z,4.83
2019-03-05T19:37:52.970Z,5.63
2019-03-05T19:40:23.866Z,5.50
2019-03-05T19:42:53.696Z,4.03
2019-03-05T19:45:23.363Z,4.30
2019-03-05T19:47:53.027Z,3.87
2019-03-05T19:50:22.939Z,4.50
2019-03-05T19:52:52.566Z,6.33
2019-03-05T19:55:22.227Z,5.73
2019-03-05T19:57:51.829Z,4.20
2019-03-05T20:00:31.281Z,4.90
2019-03-05T20:03:00.850Z,4.63
2019-03-05T20:05:30.439Z,5.23
2019-03-05T20:08:00.032Z,4.13
2019-03-05T20:10:29.715Z,4.67
2019-03-05T20:12:59.293Z,4.03
2019-03-05T20:15:29.143Z,4.27
2019-03-05T20:17:59.271Z,5.50
2019-03-05T20:20:29.301Z,9.80
2019-03-05T20:22:58.934Z,7.83
2019-03-05T20:25:28.731Z,4.80
2019-03-05T20:27:58.328Z,4.33
2019-03-05T20:30:31.737Z,5.67
2019-03-05T20:33:02.508Z,5.43
2019-03-05T20:35:32.419Z,5.83
2019-03-05T20:38:02.488Z,4.97
2019-03-05T20:40:32.213Z,4.10
2019-03-05T20:43:02.077Z,7.60
2019-03-05T20:45:31.757Z,5.90
2019-03-05T20:48:01.481Z,6.50
2019-03-05T20:50:31.422Z,5.33
2019-03-05T20:53:02.739Z,5.30
2019-03-05T20:55:32.435Z,4.50
2019-03-05T20:58:02.111Z,4.00
2019-03-05T21:00:31.805Z,3.13
2019-03-05T21:03:02.543Z,5.63
2019-03-05T21:05:33.369Z,3.30
2019-03-05T21:08:02.941Z,7.00
2019-03-05T21:10:32.605Z,6.10
2019-03-05T21:13:03.228Z,3.13
2019-03-05T21:15:32.720Z,3.60
2019-03-05T21:18:02.531Z,6.10
2019-03-05T21:20:32.262Z,7.20
2019-03-05T21:23:02.381Z,4.20
2019-03-05T21:25:32.321Z,3.70
2019-03-05T21:28:02.049Z,4.03
2019-03-05T21:30:31.632Z,3.50
2019-03-05T21:33:01.362Z,3.60
2019-03-05T21:35:31.054Z,4.07
2019-03-05T21:38:00.718Z,4.23
2019-03-05T21:40:30.266Z,3.53
2019-03-05T21:43:00.023Z,4.40
2019-03-05T21:45:31.014Z,3.50
2019-03-05T21:48:00.669Z,3.70
2019-03-05T21:50:30.232Z,4.03
2019-03-05T21:52:59.900Z,3.90
2019-03-05T21:55:29.443Z,3.50
2019-03-05T21:57:59.031Z,5.93
2019-03-05T22:00:29.192Z,5.40
2019-03-05T22:02:58.984Z,4.03
2019-03-05T22:05:28.574Z,3.80
2019-03-05T22:07:58.147Z,4.43
2019-03-05T22:10:27.713Z,3.80
2019-03-05T22:12:59.971Z,6.27
2019-03-05T22:15:29.544Z,4.07
2019-03-05T22:17:59.118Z,5.20
2019-03-05T22:20:28.721Z,5.70
2019-03-05T22:22:58.669Z,10.97
2019-03-05T22:25:29.194Z,10.17
2019-03-05T22:27:59.016Z,5.67
2019-03-05T22:30:29.024Z,10.47
2019-03-05T22:32:58.697Z,10.23
2019-03-05T22:35:28.251Z,6.77
2019-03-05T22:37:57.911Z,4.60
2019-03-05T22:40:30.578Z,12.87
2019-03-05T22:43:00.165Z,4.90
2019-03-05T22:45:29.853Z,6.97
2019-03-05T22:47:59.419Z,3.70
2019-03-05T22:50:29.120Z,6.27
2019-03-05T22:52:58.820Z,7.23
2019-03-05T22:55:28.486Z,3.47
2019-03-05T22:57:58.323Z,7.30
2019-03-05T23:00:49.911Z,4.23
2019-03-05T23:03:19.938Z,8.77
2019-03-05T23:05:49.737Z,6.93
2019-03-05T23:08:21.057Z,6.70
2019-03-05T23:10:50.747Z,6.20
2019-03-05T23:13:20.539Z,6.77
2019-03-05T23:15:50.785Z,4.07
2019-03-05T23:18:22.363Z,5.50
2019-03-05T23:20:52.125Z,3.77
2019-03-05T23:23:21.764Z,6.17
2019-03-05T23:25:51.344Z,4.23
2019-03-05T23:28:20.988Z,5.27
2019-03-05T23:30:50.611Z,7.83
2019-03-05T23:33:22.312Z,5.00
2019-03-05T23:35:51.918Z,7.60
2019-03-05T23:38:21.751Z,6.93
2019-03-05T23:40:51.474Z,8.00
2019-03-05T23:43:21.051Z,8.57
2019-03-05T23:45:50.581Z,8.07
2019-03-05T23:48:20.167Z,12.57
2019-03-05T23:50:49.780Z,9.47
2019-03-05T23:53:19.478Z,13.83
2019-03-05T23:55:49.165Z,14.90
2019-03-05T23:58:18.825Z,10.40
